createdAt,value
2022-12-16T00:01:18.963Z,39.63
2022-12-16T00:04:31.246Z,36.93
2022-12-16T00:07:43.040Z,39.85
2022-12-16T00:10:57.869Z,37.90
2022-12-16T00:14:09.965Z,40.43
2022-12-16T00:17:22.036Z,41.35
2022-12-16T00:20:34.083Z,40.98
2022-12-16T00:23:46.594Z,38.93
2022-12-16T00:26:58.585Z,40.70
2022-12-16T00:30:12.747Z,39.23
2022-12-16T00:33:25.984Z,44.53
2022-12-16T00:36:39.578Z,41.68
2022-12-16T00:39:51.446Z,41.00
2022-12-16T00:43:03.970Z,41.35
2022-12-16T00:46:18.191Z,43.03
2022-12-16T00:49:30.392Z,42.85
2022-12-16T00:52:42.595Z,42.10
2022-12-16T00:55:54.824Z,44.13
2022-12-16T00:59:06.753Z,43.05
2022-12-16T01:02:18.834Z,41.30
2022-12-16T01:05:31.383Z,42.50
2022-12-16T01:08:47.568Z,41.78
2022-12-16T01:11:59.399Z,40.58
2022-12-16T01:15:15.240Z,42.50
2022-12-16T01:18:27.169Z,40.15
2022-12-16T01:21:39.040Z,42.05
2022-12-16T01:24:51.424Z,43.23
2022-12-16T01:28:03.435Z,40.43
2022-12-16T01:31:15.819Z,40.25
2022-12-16T01:34:28.066Z,41.68
2022-12-16T01:37:39.827Z,42.50
2022-12-16T01:40:52.056Z,40.98
2022-12-16T01:44:23.377Z,42.03
2022-12-16T01:47:38.878Z,40.08
2022-12-16T01:50:51.666Z,41.88
2022-12-16T01:54:09.556Z,41.80
2022-12-16T01:57:28.859Z,41.60
2022-12-16T02:00:41.698Z,39.58
2022-12-16T02:03:55.488Z,41.73
2022-12-16T02:07:07.855Z,40.70
2022-12-16T02:10:20.410Z,40.33
2022-12-16T02:13:39.600Z,39.58
2022-12-16T02:16:57.680Z,38.85
2022-12-16T02:21:04.918Z,39.73
2022-12-16T02:25:10.114Z,39.88
2022-12-16T02:28:31.328Z,39.00
2022-12-16T02:31:53.114Z,41.38
2022-12-16T02:35:09.230Z,40.18
2022-12-16T02:38:28.497Z,39.60
2022-12-16T02:41:48.428Z,40.80
2022-12-16T02:45:06.424Z,39.80
2022-12-16T02:48:18.704Z,41.13
2022-12-16T02:51:33.201Z,39.40
2022-12-16T02:54:46.172Z,38.68
2022-12-16T02:58:18.956Z,39.18
2022-12-16T03:01:35.504Z,38.13
2022-12-16T03:04:52.970Z,40.85
2022-12-16T03:08:09.586Z,41.78
2022-12-16T03:11:22.158Z,38.85
2022-12-16T03:14:38.467Z,39.40
2022-12-16T03:17:53.020Z,38.20
2022-12-16T03:21:09.332Z,39.80
2022-12-16T03:24:22.058Z,37.55
2022-12-16T03:27:38.924Z,39.43
2022-12-16T03:34:10.908Z,39.10
2022-12-16T03:37:24.869Z,37.70
2022-12-16T03:40:38.642Z,39.48
2022-12-16T03:43:51.178Z,39.40
2022-12-16T03:47:02.919Z,37.48
2022-12-16T03:50:15.859Z,38.43
2022-12-16T03:53:28.124Z,36.93
2022-12-16T03:56:40.129Z,37.30
2022-12-16T03:59:51.880Z,36.85
2022-12-16T04:03:03.881Z,37.45
2022-12-16T04:06:18.087Z,37.65
2022-12-16T04:09:29.893Z,36.60
2022-12-16T04:12:56.317Z,36.48
2022-12-16T04:16:23.306Z,32.43
2022-12-16T04:19:55.413Z,35.13
2022-12-16T04:23:18.394Z,34.68
2022-12-16T04:26:30.662Z,36.30
2022-12-16T04:29:44.668Z,32.93
2022-12-16T04:33:15.501Z,33.63
2022-12-16T04:36:42.429Z,33.13
2022-12-16T04:40:09.680Z,28.80
2022-12-16T04:43:38.989Z,31.05
2022-12-16T04:47:05.791Z,30.38
2022-12-16T04:50:32.636Z,28.25
2022-12-16T04:53:59.133Z,28.65
2022-12-16T04:57:26.061Z,25.50
2022-12-16T05:00:52.502Z,26.05
2022-12-16T05:04:18.859Z,25.03
2022-12-16T05:07:45.233Z,26.60
2022-12-16T05:11:12.133Z,18.70
2022-12-16T05:14:38.830Z,23.58
2022-12-16T05:18:05.264Z,25.23
2022-12-16T05:21:43.471Z,23.47
2022-12-16T05:25:10.288Z,24.15
2022-12-16T05:28:37.454Z,25.50
2022-12-16T05:32:04.085Z,24.75
2022-12-16T05:35:30.641Z,23.75
2022-12-16T05:38:57.412Z,23.73
2022-12-16T05:42:23.875Z,22.50
2022-12-16T05:45:50.545Z,24.80
2022-12-16T05:49:28.392Z,26.95
2022-12-16T05:56:19.884Z,32.83
2022-12-16T05:59:46.582Z,23.60
2022-12-16T06:03:13.375Z,24.13
2022-12-16T06:06:40.060Z,24.28
2022-12-16T06:10:06.810Z,26.18
2022-12-16T06:13:33.761Z,18.63
2022-12-16T06:20:28.559Z,38.28
2022-12-16T06:23:54.947Z,33.15
2022-12-16T06:27:21.594Z,26.93
2022-12-16T06:30:47.957Z,25.60
2022-12-16T06:34:10.995Z,24.10
2022-12-16T06:37:38.165Z,25.53
2022-12-16T06:41:17.201Z,20.98
2022-12-16T06:48:08.739Z,24.83
2022-12-16T06:51:35.925Z,32.35
2022-12-16T06:55:02.280Z,23.20
2022-12-16T06:58:29.311Z,20.43
2022-12-16T07:01:57.953Z,21.98
2022-12-16T07:05:25.553Z,20.10
2022-12-16T07:12:27.892Z,20.58
2022-12-16T07:19:19.890Z,22.25
2022-12-16T07:22:46.440Z,18.90
2022-12-16T07:26:12.996Z,20.03
2022-12-16T07:29:39.835Z,18.55
2022-12-16T07:33:09.644Z,19.68
2022-12-16T07:36:35.868Z,16.85
2022-12-16T07:40:03.404Z,17.95
2022-12-16T07:43:30.447Z,17.50
2022-12-16T07:46:57.411Z,16.85
2022-12-16T07:50:24.145Z,19.65
2022-12-16T07:53:50.542Z,18.40
2022-12-16T07:57:17.242Z,16.97
2022-12-16T08:00:44.028Z,16.85
2022-12-16T08:04:10.910Z,17.83
2022-12-16T08:07:37.198Z,16.00
2022-12-16T08:11:03.502Z,15.68
2022-12-16T08:14:30.015Z,14.75
2022-12-16T08:17:57.012Z,19.65
2022-12-16T08:21:24.699Z,18.28
2022-12-16T08:24:53.429Z,15.50
2022-12-16T08:28:19.770Z,14.65
2022-12-16T08:31:46.425Z,21.10
2022-12-16T08:35:12.696Z,14.85
2022-12-16T08:38:38.939Z,21.60
2022-12-16T08:42:05.419Z,34.58
2022-12-16T08:45:32.530Z,16.00
2022-12-16T08:48:59.283Z,14.60
2022-12-16T08:52:26.141Z,14.90
2022-12-16T08:55:55.735Z,14.33
2022-12-16T08:59:21.010Z,16.23
2022-12-16T09:02:49.110Z,13.23
2022-12-16T09:06:19.688Z,14.55
2022-12-16T09:09:46.262Z,14.68
2022-12-16T09:13:27.589Z,13.33
2022-12-16T09:16:54.358Z,15.20
2022-12-16T09:20:21.085Z,26.80
2022-12-16T09:23:48.069Z,44.83
2022-12-16T09:27:29.202Z,15.10
2022-12-16T09:30:56.435Z,13.33
2022-12-16T09:34:23.710Z,15.20
2022-12-16T09:37:53.149Z,14.05
2022-12-16T09:41:30.381Z,13.43
2022-12-16T09:45:07.037Z,14.35
2022-12-16T09:48:39.842Z,15.13
2022-12-16T09:52:08.175Z,16.00
2022-12-16T09:55:43.676Z,16.30
2022-12-16T09:59:15.475Z,20.20
2022-12-16T10:02:43.271Z,29.53
2022-12-16T10:06:16.637Z,17.08
2022-12-16T10:09:50.299Z,13.88
2022-12-16T10:13:22.782Z,14.43
2022-12-16T10:16:55.398Z,15.53
2022-12-16T10:20:26.791Z,13.65
2022-12-16T10:23:57.735Z,14.73
2022-12-16T10:27:30.522Z,14.03
2022-12-16T10:30:59.453Z,15.83
2022-12-16T10:34:29.136Z,16.40
2022-12-16T10:37:59.277Z,15.75
2022-12-16T10:41:26.986Z,15.98
2022-12-16T10:44:57.336Z,16.78
2022-12-16T10:48:24.837Z,17.50
2022-12-16T10:55:25.383Z,29.75
2022-12-16T10:58:58.894Z,64.45
2022-12-16T11:02:36.958Z,19.18
2022-12-16T11:06:03.603Z,18.85
2022-12-16T11:09:49.165Z,17.80
2022-12-16T11:13:16.663Z,18.88
2022-12-16T11:16:46.070Z,18.38
2022-12-16T11:20:29.983Z,19.08
2022-12-16T11:23:56.442Z,18.48
2022-12-16T11:27:25.410Z,20.28
2022-12-16T11:30:52.541Z,19.80
2022-12-16T11:34:21.064Z,18.80
2022-12-16T11:37:49.785Z,19.13
2022-12-16T11:41:22.380Z,20.45
2022-12-16T11:44:53.860Z,20.55
2022-12-16T11:48:26.329Z,20.60
2022-12-16T11:52:08.121Z,19.58
2022-12-16T11:59:12.529Z,19.73
2022-12-16T12:02:44.559Z,19.95
2022-12-16T12:06:17.134Z,19.68
2022-12-16T12:09:46.616Z,19.13
2022-12-16T12:13:17.857Z,19.78
2022-12-16T12:16:50.497Z,20.43
2022-12-16T12:20:37.586Z,22.18
2022-12-16T12:24:18.554Z,20.20
2022-12-16T12:27:50.444Z,20.08
2022-12-16T12:31:23.867Z,19.80
2022-12-16T12:34:56.113Z,20.38
2022-12-16T12:38:27.962Z,21.83
2022-12-16T12:42:09.120Z,20.48
2022-12-16T12:45:55.459Z,20.25
2022-12-16T12:49:28.175Z,20.63
2022-12-16T12:53:28.090Z,20.83
2022-12-16T12:57:02.634Z,22.40
2022-12-16T13:00:38.353Z,22.50
2022-12-16T13:04:14.915Z,20.83
2022-12-16T13:07:41.778Z,22.00
2022-12-16T13:11:23.168Z,23.05
2022-12-16T13:15:16.408Z,23.43
2022-12-16T13:18:46.215Z,23.08
2022-12-16T13:22:12.774Z,24.35
2022-12-16T13:26:01.956Z,23.37
2022-12-16T13:29:38.861Z,26.73
2022-12-16T13:33:15.978Z,26.20
2022-12-16T13:36:44.844Z,25.67
2022-12-16T13:40:24.851Z,24.33
2022-12-16T13:44:08.160Z,25.40
2022-12-16T13:47:53.692Z,26.68
2022-12-16T13:51:20.068Z,27.00
2022-12-16T13:54:49.782Z,25.83
2022-12-16T13:58:24.144Z,28.10
2022-12-16T14:01:56.785Z,25.33
2022-12-16T14:05:30.803Z,25.05
2022-12-16T14:08:59.633Z,27.00
2022-12-16T14:12:32.956Z,25.43
2022-12-16T14:16:16.239Z,24.63
2022-12-16T14:19:47.964Z,25.20
2022-12-16T14:23:47.401Z,26.68
2022-12-16T14:26:49.284Z,27.40
2022-12-16T14:30:16.300Z,24.78
2022-12-16T14:33:48.314Z,24.43
2022-12-16T14:37:18.104Z,24.30
2022-12-16T14:40:47.361Z,24.85
2022-12-16T14:44:14.047Z,26.53
2022-12-16T14:47:56.762Z,25.77
2022-12-16T14:51:44.607Z,25.20
2022-12-16T14:55:11.464Z,24.18
2022-12-16T14:58:40.412Z,21.75
2022-12-16T15:02:07.940Z,29.05
2022-12-16T15:05:35.663Z,29.58
2022-12-16T15:09:08.578Z,30.53
2022-12-16T15:12:40.314Z,29.78
2022-12-16T15:16:09.106Z,31.75
2022-12-16T15:19:39.872Z,32.35
2022-12-16T15:23:09.768Z,30.93
2022-12-16T15:26:43.018Z,31.10
2022-12-16T15:30:09.714Z,31.75
2022-12-16T15:33:40.881Z,33.38
2022-12-16T15:37:09.653Z,33.70
2022-12-16T15:40:48.718Z,32.43
2022-12-16T15:44:15.771Z,33.20
2022-12-16T15:47:50.113Z,31.88
2022-12-16T15:51:17.032Z,34.80
2022-12-16T15:54:44.998Z,34.95
2022-12-16T15:58:19.154Z,33.73
2022-12-16T16:01:48.345Z,34.60
2022-12-16T16:05:17.898Z,35.78
2022-12-16T16:08:45.358Z,35.23
2022-12-16T16:12:11.873Z,37.00
2022-12-16T16:15:38.744Z,35.50
2022-12-16T16:19:05.651Z,35.48
2022-12-16T16:22:36.086Z,35.98
2022-12-16T16:26:04.156Z,37.23
2022-12-16T16:29:32.317Z,37.55
2022-12-16T16:33:04.187Z,35.85
2022-12-16T16:36:36.324Z,38.30
2022-12-16T16:40:04.031Z,34.38
2022-12-16T16:43:31.087Z,35.75
2022-12-16T16:50:33.379Z,37.08
2022-12-16T16:54:00.399Z,35.73
2022-12-16T16:57:28.545Z,34.75
2022-12-16T17:00:56.003Z,33.35
2022-12-16T17:04:22.869Z,36.43
2022-12-16T17:07:53.762Z,34.85
2022-12-16T17:11:18.395Z,35.10
2022-12-16T17:14:45.039Z,36.28
2022-12-16T17:18:14.422Z,36.23
2022-12-16T17:21:41.394Z,38.70
2022-12-16T17:25:08.022Z,36.75
2022-12-16T17:28:34.515Z,35.68
2022-12-16T17:32:01.133Z,38.13
2022-12-16T17:35:29.475Z,29.23
2022-12-16T17:38:58.786Z,36.85
2022-12-16T17:42:25.785Z,37.35
2022-12-16T17:45:52.547Z,40.38
2022-12-16T17:49:35.274Z,40.08
2022-12-16T17:53:02.648Z,40.80
2022-12-16T17:56:31.000Z,45.98
2022-12-16T17:59:57.749Z,33.83
2022-12-16T18:03:24.617Z,44.28
2022-12-16T18:06:52.990Z,44.28
2022-12-16T18:10:19.719Z,45.78
2022-12-16T18:13:46.672Z,47.18
2022-12-16T18:17:13.433Z,47.90
2022-12-16T18:20:40.230Z,46.18
2022-12-16T18:24:06.904Z,46.68
2022-12-16T18:27:33.581Z,35.43
2022-12-16T18:31:05.311Z,48.63
2022-12-16T18:34:32.218Z,47.80
2022-12-16T18:37:58.190Z,46.58
2022-12-16T18:41:33.195Z,48.50
2022-12-16T18:45:01.226Z,50.15
2022-12-16T18:48:29.503Z,48.20
2022-12-16T18:51:56.371Z,48.08
2022-12-16T18:55:23.879Z,47.98
2022-12-16T18:58:51.881Z,50.15
2022-12-16T19:02:19.118Z,68.38
2022-12-16T19:05:46.483Z,53.70
2022-12-16T19:09:13.343Z,50.23
2022-12-16T19:12:40.196Z,49.78
2022-12-16T19:16:14.976Z,50.98
2022-12-16T19:19:41.845Z,52.93
2022-12-16T19:23:08.677Z,54.50
2022-12-16T19:26:36.311Z,54.35
2022-12-16T19:30:03.176Z,52.28
2022-12-16T19:33:30.040Z,52.80
2022-12-16T19:36:56.782Z,56.15
2022-12-16T19:40:25.130Z,55.85
2022-12-16T19:43:53.411Z,54.35
2022-12-16T19:47:20.404Z,53.15
2022-12-16T19:50:47.244Z,52.57
2022-12-16T19:54:13.845Z,54.43
2022-12-16T19:57:40.869Z,52.95
2022-12-16T20:01:07.652Z,52.18
2022-12-16T20:04:46.130Z,53.03
2022-12-16T20:08:13.575Z,51.70
2022-12-16T20:11:40.332Z,50.65
2022-12-16T20:15:06.859Z,54.40
2022-12-16T20:18:33.481Z,49.70
2022-12-16T20:22:06.766Z,44.28
2022-12-16T20:25:30.486Z,45.50
2022-12-16T20:32:23.121Z,45.88
2022-12-16T20:35:49.568Z,43.30
2022-12-16T20:39:16.187Z,41.08
2022-12-16T20:42:42.919Z,41.15
2022-12-16T20:46:11.466Z,44.78
2022-12-16T20:49:38.178Z,41.38
2022-12-16T20:53:05.024Z,42.63
2022-12-16T20:56:31.659Z,41.68
2022-12-16T20:59:58.364Z,42.85
2022-12-16T21:03:29.259Z,44.50
2022-12-16T21:06:56.259Z,45.58
2022-12-16T21:13:48.838Z,39.28
2022-12-16T21:17:16.128Z,41.93
2022-12-16T21:20:42.574Z,41.93
2022-12-16T21:24:09.761Z,41.20
2022-12-16T21:31:01.576Z,39.60
2022-12-16T21:34:27.475Z,40.58
2022-12-16T21:37:53.887Z,40.63
2022-12-16T21:41:20.733Z,40.97
2022-12-16T21:44:47.564Z,41.65
2022-12-16T21:48:16.429Z,31.83
2022-12-16T21:51:43.101Z,42.28
2022-12-16T21:55:09.518Z,43.28
2022-12-16T21:58:36.299Z,39.80
2022-12-16T22:02:02.662Z,41.43
2022-12-16T22:05:29.475Z,43.50
2022-12-16T22:08:56.334Z,41.38
2022-12-16T22:12:23.524Z,40.83
2022-12-16T22:16:02.808Z,43.08
2022-12-16T22:19:30.077Z,41.95
2022-12-16T22:22:58.895Z,37.68
2022-12-16T22:26:37.299Z,41.35
2022-12-16T22:30:03.947Z,41.98
2022-12-16T22:33:32.515Z,40.50
2022-12-16T22:36:59.358Z,41.35
2022-12-16T22:40:28.289Z,40.63
2022-12-16T22:43:54.687Z,40.58
2022-12-16T22:47:23.246Z,39.73
2022-12-16T22:50:51.665Z,41.13
2022-12-16T22:54:23.730Z,38.38
2022-12-16T22:57:53.472Z,39.75
2022-12-16T23:01:20.392Z,37.23
2022-12-16T23:04:46.982Z,40.10
2022-12-16T23:08:13.821Z,41.20
2022-12-16T23:11:43.308Z,40.35
2022-12-16T23:15:09.954Z,38.95
2022-12-16T23:18:36.918Z,40.78
2022-12-16T23:22:03.492Z,40.55
2022-12-16T23:25:30.292Z,30.68
2022-12-16T23:28:56.572Z,39.90
2022-12-16T23:32:23.352Z,39.60
2022-12-16T23:35:50.155Z,42.65
2022-12-16T23:39:17.011Z,41.80
2022-12-16T23:42:43.500Z,43.53
2022-12-16T23:46:10.240Z,44.18
2022-12-16T23:49:37.241Z,42.63
2022-12-16T23:53:03.911Z,44.90
2022-12-16T23:56:30.678Z,42.38
2022-12-16T23:59:56.977Z,44.13
